Time;durP1;ratioP1;P1;durP2;ratioP2;P2;SDS_P1;SDS_P2;PMS_P1;PMS_P2;Temp;Humidity;BMP_temperature;BMP_pressure;BME280_temperature;BME280_humidity;BME280_pressure;Samples;Min_cycle;Max_cycle;Signal;HPM_P1;HPM_P2
2023/08/18 00:01:29;;;;;;;11.97;5.37;;;16.90;99.90;;;;;;5038478;28;20484;-56
2023/08/18 00:03:55;;;;;;;11.30;5.47;;;16.90;99.90;;;;;;5046584;28;20711;-57
2023/08/18 00:06:21;;;;;;;12.30;5.60;;;16.90;99.90;;;;;;5037276;28;20259;-56
2023/08/18 00:08:47;;;;;;;8.90;5.90;;;16.90;99.90;;;;;;5039620;28;20847;-57
2023/08/18 00:11:12;;;;;;;10.07;5.80;;;16.90;99.90;;;;;;5038979;28;20240;-56
2023/08/18 00:13:38;;;;;;;9.90;5.60;;;16.80;99.90;;;;;;5044438;28;20343;-56
2023/08/18 00:16:04;;;;;;;8.57;6.07;;;16.80;99.90;;;;;;5040959;28;20174;-56
2023/08/18 00:18:30;;;;;;;9.53;6.00;;;16.80;99.90;;;;;;5038213;28;20663;-56
2023/08/18 00:20:56;;;;;;;8.73;5.83;;;16.80;99.90;;;;;;5035639;28;20269;-57
2023/08/18 00:23:21;;;;;;;9.70;5.90;;;16.80;99.90;;;;;;5035822;28;20218;-56
2023/08/18 00:25:47;;;;;;;10.03;5.83;;;16.80;99.90;;;;;;5037934;28;20218;-56
2023/08/18 00:28:13;;;;;;;6.73;6.03;;;16.80;99.90;;;;;;5039112;28;20195;-55
2023/08/18 00:30:39;;;;;;;6.23;5.40;;;16.80;99.90;;;;;;5046408;28;20681;-55
2023/08/18 00:33:04;;;;;;;14.80;5.20;;;16.70;99.90;;;;;;5046154;28;20490;-55
2023/08/18 00:35:30;;;;;;;9.40;5.70;;;16.70;99.90;;;;;;5038971;28;20174;-55
2023/08/18 00:37:56;;;;;;;8.90;5.20;;;16.70;99.90;;;;;;5039943;28;20261;-55
2023/08/18 00:40:24;;;;;;;6.50;5.30;;;16.70;99.90;;;;;;5045797;28;20236;-56
2023/08/18 00:42:50;;;;;;;15.87;6.10;;;16.60;99.90;;;;;;5045739;28;20183;-56
2023/08/18 00:45:16;;;;;;;6.80;4.97;;;16.60;99.90;;;;;;5044544;28;20802;-55
2023/08/18 00:47:43;;;;;;;8.20;5.33;;;16.60;99.90;;;;;;5034272;28;20195;-56
2023/08/18 00:50:11;;;;;;;12.07;5.97;;;16.60;99.90;;;;;;5040006;28;20524;-56
2023/08/18 00:52:38;;;;;;;9.77;4.80;;;16.60;99.90;;;;;;5043438;28;20476;-56
2023/08/18 00:55:06;;;;;;;12.27;5.00;;;16.50;99.90;;;;;;5043819;28;20774;-55
2023/08/18 00:57:33;;;;;;;11.37;5.30;;;16.50;99.90;;;;;;5040040;28;20444;-55
2023/08/18 00:59:59;;;;;;;8.47;4.97;;;16.50;99.90;;;;;;5040934;28;20430;-55
2023/08/18 01:02:25;;;;;;;8.00;5.60;;;16.40;99.90;;;;;;5038315;28;20440;-56
2023/08/18 01:04:51;;;;;;;7.17;5.10;;;16.40;99.90;;;;;;5041304;28;20183;-56
2023/08/18 01:07:17;;;;;;;6.23;5.37;;;16.50;99.90;;;;;;5041316;28;20445;-56
2023/08/18 01:09:44;;;;;;;14.97;5.43;;;16.40;99.90;;;;;;5039278;28;20433;-57
2023/08/18 01:12:21;;;;;;;6.10;5.07;;;16.40;99.90;;;;;;5042390;28;20199;-57
2023/08/18 01:15:04;;;;;;;7.27;5.07;;;16.40;99.90;;;;;;5043063;28;20632;-55
2023/08/18 01:17:44;;;;;;;7.33;5.37;;;16.40;99.90;;;;;;5038924;28;20445;-56
2023/08/18 01:20:11;;;;;;;10.57;4.70;;;16.40;99.90;;;;;;5040095;28;20406;-57
2023/08/18 01:22:37;;;;;;;5.80;4.70;;;16.40;99.90;;;;;;5037555;28;20436;-57
2023/08/18 01:25:03;;;;;;;10.37;5.53;;;16.40;99.90;;;;;;5039963;28;20462;-56
2023/08/18 01:27:31;;;;;;;12.13;5.40;;;16.30;99.90;;;;;;5035207;28;20488;-56
2023/08/18 01:29:57;;;;;;;9.70;4.87;;;16.30;99.90;;;;;;5036447;28;20183;-56
2023/08/18 01:32:25;;;;;;;5.20;4.70;;;16.20;99.90;;;;;;5040285;28;20507;-56
2023/08/18 01:34:53;;;;;;;11.30;4.97;;;16.20;99.90;;;;;;5046904;28;20849;-56
2023/08/18 01:37:19;;;;;;;7.57;4.80;;;16.10;99.90;;;;;;5042901;28;20576;-56
2023/08/18 01:39:46;;;;;;;5.93;4.70;;;16.10;99.90;;;;;;5039646;28;20433;-56
2023/08/18 01:42:13;;;;;;;7.27;5.80;;;16.10;99.90;;;;;;5043530;28;20469;-56
2023/08/18 01:44:39;;;;;;;18.07;5.90;;;16.10;99.90;;;;;;5044637;28;20440;-57
2023/08/18 01:47:04;;;;;;;13.60;6.20;;;16.10;99.90;;;;;;5046275;28;20449;-56
2023/08/18 01:49:30;;;;;;;10.10;5.50;;;16.00;99.90;;;;;;5036673;28;20183;-56
2023/08/18 01:51:56;;;;;;;11.83;5.83;;;16.00;99.90;;;;;;5048396;28;20202;-56
2023/08/18 01:54:21;;;;;;;6.60;5.40;;;16.00;99.90;;;;;;5047159;28;20257;-56
2023/08/18 01:56:47;;;;;;;5.70;4.83;;;15.90;99.90;;;;;;5044911;28;20202;-56
2023/08/18 01:59:14;;;;;;;6.87;5.20;;;15.90;99.90;;;;;;5050194;28;20171;-56
2023/08/18 02:01:39;;;;;;;6.57;5.63;;;15.90;99.90;;;;;;5041094;28;20204;-56
2023/08/18 02:04:05;;;;;;;6.40;5.07;;;15.90;99.90;;;;;;5046384;28;20422;-57
2023/08/18 02:06:31;;;;;;;6.87;4.73;;;15.90;99.90;;;;;;5048576;28;20644;-56
2023/08/18 02:08:57;;;;;;;7.40;4.40;;;15.90;99.90;;;;;;5046007;28;20254;-56
2023/08/18 02:11:22;;;;;;;6.40;5.37;;;15.90;99.90;;;;;;5044438;28;20550;-56
2023/08/18 02:13:48;;;;;;;7.33;5.47;;;15.90;99.90;;;;;;5046244;28;20207;-57
2023/08/18 02:16:13;;;;;;;7.30;5.60;;;15.80;99.90;;;;;;5050507;28;20171;-56
2023/08/18 02:18:39;;;;;;;6.40;4.73;;;15.80;99.90;;;;;;5044892;28;20197;-56
2023/08/18 02:21:05;;;;;;;5.70;4.80;;;15.80;99.90;;;;;;5052054;28;20171;-56
2023/08/18 02:23:31;;;;;;;6.23;5.23;;;15.80;99.90;;;;;;5050771;28;20261;-55
2023/08/18 02:26:04;;;;;;;6.30;4.60;;;15.80;99.90;;;;;;5048016;28;20213;-56
2023/08/18 02:28:30;;;;;;;8.57;4.97;;;15.70;99.90;;;;;;5046662;28;20201;-56
2023/08/18 02:31:05;;;;;;;9.20;5.13;;;15.80;99.90;;;;;;5049564;28;20784;-57
2023/08/18 02:33:32;;;;;;;5.20;4.70;;;15.70;99.90;;;;;;5043976;28;20214;-55
2023/08/18 02:35:59;;;;;;;6.97;5.10;;;15.70;99.90;;;;;;5046632;28;20468;-56
2023/08/18 02:38:26;;;;;;;6.20;5.43;;;15.70;99.90;;;;;;5046436;28;20437;-56
2023/08/18 02:40:52;;;;;;;8.23;4.47;;;15.70;99.90;;;;;;5045218;28;20999;-56
2023/08/18 02:43:18;;;;;;;7.03;5.20;;;15.70;99.90;;;;;;5050316;28;20425;-55
2023/08/18 02:45:43;;;;;;;5.10;4.60;;;15.70;99.90;;;;;;5040414;28;20485;-56
2023/08/18 02:48:11;;;;;;;18.47;6.10;;;15.70;99.90;;;;;;5046977;28;20648;-56
2023/08/18 02:50:38;;;;;;;10.30;9.40;;;15.60;99.90;;;;;;5043671;28;20286;-56
2023/08/18 02:53:04;;;;;;;14.43;12.93;;;15.60;99.90;;;;;;5043609;28;20551;-56
2023/08/18 02:55:29;;;;;;;7.90;7.10;;;15.60;99.90;;;;;;5043122;28;20509;-56
2023/08/18 02:57:55;;;;;;;18.77;6.27;;;15.60;99.90;;;;;;5039290;28;20213;-56
2023/08/18 03:00:20;;;;;;;10.63;5.37;;;15.60;99.90;;;;;;5042467;28;20183;-56
2023/08/18 03:02:46;;;;;;;39.77;5.80;;;15.60;99.90;;;;;;5041514;28;20270;-54
2023/08/18 03:05:12;;;;;;;8.90;5.20;;;15.50;99.90;;;;;;5043749;28;20168;-56
2023/08/18 03:07:38;;;;;;;16.23;4.80;;;15.60;99.90;;;;;;5039949;28;20254;-56
2023/08/18 03:10:03;;;;;;;11.50;5.03;;;15.50;99.90;;;;;;5040564;28;20175;-55
2023/08/18 03:12:29;;;;;;;11.10;4.50;;;15.50;99.90;;;;;;5047349;28;20202;-56
2023/08/18 03:14:55;;;;;;;5.83;5.20;;;15.40;99.90;;;;;;5047667;28;20167;-56
2023/08/18 03:17:20;;;;;;;8.40;4.80;;;15.50;99.90;;;;;;5041182;28;20274;-55
2023/08/18 03:19:46;;;;;;;12.10;5.40;;;15.50;99.90;;;;;;5040660;28;20169;-56
2023/08/18 03:22:11;;;;;;;16.63;4.93;;;15.50;99.90;;;;;;5041011;28;20256;-55
2023/08/18 03:24:37;;;;;;;22.07;5.13;;;15.40;99.90;;;;;;5042705;28;20212;-56
2023/08/18 03:27:03;;;;;;;16.73;5.30;;;15.40;99.90;;;;;;5039349;28;20679;-54
2023/08/18 03:29:29;;;;;;;27.10;5.40;;;15.30;99.90;;;;;;5031120;28;20175;-55
2023/08/18 03:31:54;;;;;;;11.13;4.93;;;15.30;99.90;;;;;;5036571;28;20600;-56
2023/08/18 03:34:20;;;;;;;15.73;5.00;;;15.30;99.90;;;;;;5045027;28;20167;-56
2023/08/18 03:36:46;;;;;;;7.60;4.93;;;15.30;99.90;;;;;;5047179;28;20195;-55
2023/08/18 03:39:12;;;;;;;7.50;4.90;;;15.20;99.90;;;;;;5046594;28;20798;-56
2023/08/18 03:41:38;;;;;;;18.33;5.10;;;15.30;99.90;;;;;;5040438;28;20186;-56
2023/08/18 03:44:04;;;;;;;6.70;4.40;;;15.20;99.90;;;;;;5044133;28;20841;-57
2023/08/18 03:46:29;;;;;;;5.63;4.07;;;15.20;99.90;;;;;;5046056;28;20254;-57
2023/08/18 03:48:55;;;;;;;21.03;5.30;;;15.20;99.90;;;;;;5040309;28;20175;-56
2023/08/18 03:51:21;;;;;;;15.57;5.10;;;15.20;99.90;;;;;;5040972;28;20803;-56
2023/08/18 03:53:47;;;;;;;65.37;6.90;;;15.20;99.90;;;;;;5037163;28;20207;-55
2023/08/18 03:56:12;;;;;;;50.33;6.40;;;15.20;99.90;;;;;;5042164;28;20258;-56
2023/08/18 03:58:39;;;;;;;70.53;7.40;;;15.10;99.90;;;;;;5043041;28;20203;-56
2023/08/18 04:01:08;;;;;;;61.83;6.17;;;15.10;99.90;;;;;;5045037;28;20694;-56
2023/08/18 04:03:35;;;;;;;9.40;5.30;;;15.10;99.90;;;;;;5035264;28;20417;-55
2023/08/18 04:06:02;;;;;;;19.40;5.20;;;15.00;99.90;;;;;;5043628;28;20462;-56
2023/08/18 04:08:27;;;;;;;28.53;5.40;;;15.00;99.90;;;;;;5042732;28;20460;-56
2023/08/18 04:10:53;;;;;;;34.43;5.10;;;14.90;99.90;;;;;;5044404;28;20448;-56
2023/08/18 04:13:19;;;;;;;39.30;5.30;;;14.90;99.90;;;;;;5040064;28;20279;-56
2023/08/18 04:15:45;;;;;;;8.33;4.40;;;14.90;99.90;;;;;;5037619;28;20171;-56
2023/08/18 04:18:10;;;;;;;6.10;3.90;;;14.90;99.90;;;;;;5042299;28;20784;-56
2023/08/18 04:20:36;;;;;;;15.53;4.93;;;14.90;99.90;;;;;;5046521;28;20422;-56
2023/08/18 04:23:02;;;;;;;27.23;4.80;;;15.00;99.90;;;;;;5041693;28;20175;-56
2023/08/18 04:25:27;;;;;;;58.83;5.33;;;15.00;99.90;;;;;;5036202;28;20219;-56
2023/08/18 04:27:53;;;;;;;6.17;4.00;;;14.90;99.90;;;;;;5039916;28;20304;-56
2023/08/18 04:30:19;;;;;;;7.90;4.57;;;14.90;99.90;;;;;;5042371;28;20575;-56
2023/08/18 04:32:44;;;;;;;6.90;5.50;;;14.90;99.90;;;;;;5040380;28;20199;-56
2023/08/18 04:35:10;;;;;;;38.50;6.40;;;14.90;99.90;;;;;;5038479;28;20174;-56
2023/08/18 04:37:36;;;;;;;19.70;4.50;;;15.00;99.90;;;;;;5036873;28;20191;-56
2023/08/18 04:40:03;;;;;;;23.37;5.50;;;15.00;99.90;;;;;;5039361;28;20187;-57
2023/08/18 04:42:29;;;;;;;5.30;3.90;;;14.90;99.90;;;;;;5044299;28;20167;-56
2023/08/18 04:44:54;;;;;;;37.37;5.80;;;14.90;99.90;;;;;;5040555;28;20992;-56
2023/08/18 04:47:20;;;;;;;25.70;5.67;;;14.90;99.90;;;;;;5034346;28;20215;-56
2023/08/18 04:49:45;;;;;;;10.50;4.80;;;14.80;99.90;;;;;;5036271;28;20531;-56
2023/08/18 04:52:11;;;;;;;41.10;5.43;;;14.80;99.90;;;;;;5040447;28;20194;-55
2023/08/18 04:54:37;;;;;;;26.87;4.73;;;14.80;99.90;;;;;;5047358;28;20182;-56
2023/08/18 04:57:07;;;;;;;65.77;6.50;;;14.70;99.90;;;;;;5047655;28;20722;-56
2023/08/18 04:59:32;;;;;;;48.83;5.33;;;14.70;99.90;;;;;;5041901;28;20681;-56
2023/08/18 05:01:58;;;;;;;19.73;4.60;;;14.70;99.90;;;;;;5036188;28;20426;-57
2023/08/18 05:04:24;;;;;;;87.70;6.80;;;14.70;99.90;;;;;;5037950;28;20262;-56
2023/08/18 05:06:50;;;;;;;35.20;4.23;;;14.70;99.90;;;;;;5041623;28;20715;-56
2023/08/18 05:09:15;;;;;;;5.37;3.70;;;14.60;99.90;;;;;;5042778;28;20221;-56
2023/08/18 05:11:41;;;;;;;5.70;4.10;;;14.60;99.90;;;;;;5041536;28;20210;-55
2023/08/18 05:14:07;;;;;;;51.57;5.63;;;14.70;99.90;;;;;;5041462;28;20538;-57
2023/08/18 05:16:32;;;;;;;33.67;5.20;;;14.70;99.90;;;;;;5046377;28;20170;-56
2023/08/18 05:18:59;;;;;;;43.53;5.07;;;14.70;99.90;;;;;;5045856;28;20167;-54
2023/08/18 05:21:24;;;;;;;16.23;4.73;;;14.70;99.90;;;;;;5040439;28;20167;-55
2023/08/18 05:23:50;;;;;;;16.30;4.10;;;14.70;99.90;;;;;;5040827;28;20755;-55
2023/08/18 05:26:16;;;;;;;4.80;4.03;;;14.70;99.90;;;;;;5044871;28;20664;-56
2023/08/18 05:28:42;;;;;;;5.70;4.57;;;14.70;99.90;;;;;;5034892;28;20286;-57
2023/08/18 05:31:08;;;;;;;6.20;4.37;;;14.70;99.90;;;;;;5034775;28;20175;-56
2023/08/18 05:33:34;;;;;;;5.20;4.70;;;14.80;99.90;;;;;;5042653;28;20453;-57
2023/08/18 05:36:00;;;;;;;9.80;5.10;;;14.80;99.90;;;;;;5041204;28;20258;-58
2023/08/18 05:38:26;;;;;;;75.87;6.87;;;14.90;99.90;;;;;;5044101;28;20405;-54
2023/08/18 05:40:53;;;;;;;66.33;6.77;;;14.90;99.90;;;;;;5039461;28;20425;-57
2023/08/18 05:43:19;;;;;;;66.50;7.53;;;14.80;99.90;;;;;;5037974;28;20430;-56
2023/08/18 05:45:46;;;;;;;51.73;6.40;;;14.80;99.90;;;;;;5040179;28;20429;-56
2023/08/18 05:48:12;;;;;;;6.53;4.83;;;14.80;99.90;;;;;;5035147;28;20226;-56
2023/08/18 05:50:39;;;;;;;13.23;5.40;;;14.80;99.90;;;;;;5046385;28;20421;-56
2023/08/18 05:53:05;;;;;;;8.90;5.80;;;14.90;99.90;;;;;;5033828;28;20526;-55
2023/08/18 05:55:31;;;;;;;9.60;6.87;;;15.00;99.90;;;;;;5040122;28;20417;-57
2023/08/18 05:58:04;;;;;;;16.17;6.63;;;15.00;99.90;;;;;;5035518;28;21005;-57
2023/08/18 06:00:30;;;;;;;77.57;8.17;;;15.10;99.90;;;;;;5040681;28;20804;-56
2023/08/18 06:02:57;;;;;;;35.83;8.10;;;15.10;99.90;;;;;;5039220;28;20860;-55
2023/08/18 06:05:23;;;;;;;146.83;10.83;;;15.00;99.90;;;;;;5045171;28;20410;-56
2023/08/18 06:07:49;;;;;;;45.93;7.30;;;15.10;99.90;;;;;;5039508;28;21027;-55
2023/08/18 06:10:14;;;;;;;9.30;5.60;;;15.00;99.90;;;;;;5040280;28;20449;-56
2023/08/18 06:12:40;;;;;;;7.00;5.60;;;15.00;99.90;;;;;;5046727;28;20531;-56
2023/08/18 06:15:07;;;;;;;7.80;5.80;;;15.10;99.90;;;;;;5035780;28;20167;-55
2023/08/18 06:17:33;;;;;;;6.80;5.80;;;15.20;99.90;;;;;;5035902;28;20206;-56
2023/08/18 06:19:59;;;;;;;6.97;5.73;;;15.20;99.90;;;;;;5037838;28;20445;-55
2023/08/18 06:22:25;;;;;;;7.00;5.90;;;15.40;99.90;;;;;;5047498;28;20278;-57
2023/08/18 06:24:51;;;;;;;15.50;6.50;;;15.50;99.90;;;;;;5049237;28;20521;-56
2023/08/18 06:27:16;;;;;;;6.30;5.20;;;15.50;99.90;;;;;;5040915;28;20340;-56
2023/08/18 06:29:42;;;;;;;6.93;4.23;;;15.60;99.90;;;;;;5043639;28;20179;-55
2023/08/18 06:32:07;;;;;;;4.80;4.33;;;15.70;99.90;;;;;;5044335;28;20200;-57
2023/08/18 06:34:33;;;;;;;7.93;4.57;;;15.70;99.90;;;;;;5050163;28;20241;-56
2023/08/18 06:36:58;;;;;;;4.80;4.30;;;15.70;99.90;;;;;;5037440;28;20187;-56
2023/08/18 06:39:24;;;;;;;5.20;4.00;;;15.80;99.90;;;;;;5047321;28;20204;-57
2023/08/18 06:41:50;;;;;;;7.93;4.30;;;15.90;99.90;;;;;;5042691;28;20636;-56
2023/08/18 06:44:15;;;;;;;5.30;4.33;;;16.00;99.90;;;;;;5047014;28;20398;-53
2023/08/18 06:46:41;;;;;;;4.37;3.97;;;16.20;99.90;;;;;;5044767;28;20172;-58
2023/08/18 06:49:06;;;;;;;8.07;4.20;;;16.30;99.90;;;;;;5042277;28;20175;-54
2023/08/18 06:51:32;;;;;;;6.10;4.80;;;16.40;99.90;;;;;;5041173;28;20269;-57
2023/08/18 06:53:57;;;;;;;6.13;5.10;;;16.50;99.90;;;;;;5043703;28;20256;-55
2023/08/18 06:56:23;;;;;;;7.47;5.00;;;16.60;99.90;;;;;;5049224;28;20195;-58
2023/08/18 06:58:49;;;;;;;8.40;4.87;;;16.60;99.90;;;;;;5033503;28;20196;-55
2023/08/18 07:01:14;;;;;;;5.13;4.63;;;16.70;99.90;;;;;;5037504;28;20565;-54
2023/08/18 07:03:40;;;;;;;5.80;5.00;;;16.80;99.90;;;;;;5046019;28;20179;-56
2023/08/18 07:06:05;;;;;;;7.97;5.57;;;16.80;99.90;;;;;;5045206;28;20171;-56
2023/08/18 07:08:32;;;;;;;17.60;5.77;;;16.80;99.90;;;;;;5046587;28;20217;-56
2023/08/18 07:10:58;;;;;;;6.27;5.40;;;16.90;99.90;;;;;;5041315;28;20176;-57
2023/08/18 07:13:24;;;;;;;7.73;4.80;;;17.00;99.90;;;;;;5040544;28;20453;-57
2023/08/18 07:15:49;;;;;;;5.47;4.87;;;17.10;99.90;;;;;;5043063;28;20173;-56
2023/08/18 07:18:17;;;;;;;8.90;4.77;;;17.20;99.90;;;;;;5048444;28;20215;-57
2023/08/18 07:20:43;;;;;;;5.53;4.60;;;17.40;99.90;;;;;;5042752;28;20232;-57
2023/08/18 07:23:08;;;;;;;8.10;4.83;;;17.50;99.90;;;;;;5039130;28;20484;-57
2023/08/18 07:25:34;;;;;;;5.60;4.60;;;17.60;99.90;;;;;;5040913;28;20430;-56
2023/08/18 07:28:00;;;;;;;7.50;4.97;;;17.70;99.90;;;;;;5041931;28;20198;-57
2023/08/18 07:30:26;;;;;;;4.63;4.23;;;17.80;99.90;;;;;;5042983;28;20286;-57
2023/08/18 07:32:54;;;;;;;7.00;4.50;;;17.90;99.90;;;;;;5036978;28;20199;-57
2023/08/18 07:35:20;;;;;;;5.67;5.07;;;18.00;99.90;;;;;;5041198;28;20178;-57
2023/08/18 07:37:45;;;;;;;6.10;4.33;;;18.20;99.90;;;;;;5037382;28;20537;-57
2023/08/18 07:40:11;;;;;;;6.20;4.80;;;18.30;99.90;;;;;;5046990;28;20512;-57
2023/08/18 07:42:38;;;;;;;6.30;4.80;;;18.40;99.90;;;;;;5038421;28;20183;-56
2023/08/18 07:45:05;;;;;;;5.30;4.17;;;18.50;99.90;;;;;;5038452;28;20517;-57
2023/08/18 07:47:30;;;;;;;8.87;5.40;;;18.70;99.90;;;;;;5039871;28;20934;-57
2023/08/18 07:49:56;;;;;;;7.80;4.70;;;18.70;99.90;;;;;;5039428;28;20425;-57
2023/08/18 07:52:22;;;;;;;6.43;4.23;;;18.80;99.90;;;;;;5048831;28;20214;-57
2023/08/18 07:54:47;;;;;;;6.10;4.53;;;18.90;99.90;;;;;;5045885;28;20194;-57
2023/08/18 07:57:13;;;;;;;7.80;4.50;;;19.10;99.90;;;;;;5041983;28;20556;-57
2023/08/18 07:59:38;;;;;;;5.83;4.10;;;19.10;99.90;;;;;;5039545;28;20167;-57
2023/08/18 08:02:04;;;;;;;5.10;4.27;;;19.30;99.90;;;;;;5040380;28;20178;-57
2023/08/18 08:04:30;;;;;;;6.33;4.53;;;19.40;99.90;;;;;;5044126;28;20219;-57
2023/08/18 08:06:57;;;;;;;6.90;4.60;;;19.50;99.90;;;;;;5035044;28;20222;-57
2023/08/18 08:09:26;;;;;;;4.97;4.03;;;19.60;99.90;;;;;;5041419;28;20437;-57
2023/08/18 08:11:53;;;;;;;11.10;4.50;;;19.70;99.90;;;;;;5038898;28;20795;-56
2023/08/18 08:14:22;;;;;;;9.77;4.50;;;19.80;99.90;;;;;;5032155;28;20923;-58
2023/08/18 08:16:47;;;;;;;6.37;4.57;;;19.90;99.90;;;;;;5044763;28;20452;-56
2023/08/18 08:19:13;;;;;;;6.03;4.40;;;20.00;99.90;;;;;;5041951;28;20580;-57
2023/08/18 08:21:40;;;;;;;5.53;4.27;;;20.10;99.90;;;;;;5044535;28;20166;-57
2023/08/18 08:24:06;;;;;;;7.50;4.03;;;20.20;99.90;;;;;;5042240;28;20245;-56
2023/08/18 08:26:33;;;;;;;7.93;4.27;;;20.30;99.90;;;;;;5048280;28;20458;-56
2023/08/18 08:28:58;;;;;;;5.17;4.37;;;20.40;99.90;;;;;;5040076;28;20431;-56
2023/08/18 08:31:24;;;;;;;7.93;4.73;;;20.50;99.90;;;;;;5037945;28;20441;-57
2023/08/18 08:33:49;;;;;;;5.60;4.03;;;20.50;99.90;;;;;;5041059;28;20277;-57
2023/08/18 08:36:15;;;;;;;6.33;4.23;;;20.60;99.90;;;;;;5044505;28;20210;-56
2023/08/18 08:38:42;;;;;;;7.80;3.73;;;20.80;99.90;;;;;;5044038;28;20546;-57
2023/08/18 08:41:08;;;;;;;6.00;4.57;;;20.80;99.90;;;;;;5039478;28;20171;-58
2023/08/18 08:43:34;;;;;;;9.80;4.00;;;21.00;99.90;;;;;;5035362;28;21093;-58
2023/08/18 08:46:00;;;;;;;6.50;4.53;;;21.10;99.90;;;;;;5039289;28;20567;-57
2023/08/18 08:48:40;;;;;;;8.23;4.67;;;21.20;99.90;;;;;;5037594;28;20496;-58
2023/08/18 08:51:11;;;;;;;5.90;3.77;;;21.40;99.90;;;;;;5048161;28;20194;-58
2023/08/18 08:53:39;;;;;;;5.80;4.03;;;21.50;99.90;;;;;;5035774;28;20460;-57
2023/08/18 08:56:07;;;;;;;7.87;4.27;;;21.70;99.90;;;;;;5040823;28;20513;-56
2023/08/18 08:58:34;;;;;;;4.70;3.90;;;21.70;99.90;;;;;;5043031;28;20450;-57
2023/08/18 09:01:01;;;;;;;6.10;4.17;;;21.80;99.90;;;;;;5046170;28;20426;-57
2023/08/18 09:03:28;;;;;;;5.83;3.90;;;22.00;99.90;;;;;;5038830;28;20437;-56
2023/08/18 09:05:57;;;;;;;8.00;4.30;;;22.10;99.90;;;;;;5037020;28;20426;-57
2023/08/18 09:08:23;;;;;;;5.37;3.83;;;22.10;99.90;;;;;;5040655;28;20536;-56
2023/08/18 09:10:48;;;;;;;7.53;4.00;;;22.20;99.90;;;;;;5044525;28;20509;-57
2023/08/18 09:13:14;;;;;;;6.47;3.60;;;22.40;99.90;;;;;;5041882;28;20191;-56
2023/08/18 09:15:42;;;;;;;11.30;4.43;;;22.50;99.90;;;;;;5042080;28;20829;-58
2023/08/18 09:18:08;;;;;;;8.47;4.00;;;22.70;99.90;;;;;;5039568;28;20199;-56
2023/08/18 09:20:34;;;;;;;12.00;4.53;;;22.80;99.90;;;;;;5038959;28;20428;-55
2023/08/18 09:23:01;;;;;;;21.93;6.47;;;22.90;99.90;;;;;;5033444;28;20653;-55
2023/08/18 09:25:27;;;;;;;12.20;3.87;;;23.10;99.90;;;;;;5045594;28;20457;-56
2023/08/18 09:27:52;;;;;;;15.83;4.27;;;23.20;99.90;;;;;;5036362;28;20745;-57
2023/08/18 09:30:18;;;;;;;7.10;3.63;;;23.40;99.90;;;;;;5037975;28;20255;-56
2023/08/18 09:32:44;;;;;;;15.00;5.20;;;23.50;93.70;;;;;;5024820;28;20210;-56
2023/08/18 09:35:12;;;;;;;13.00;5.73;;;23.70;88.00;;;;;;5036989;28;20178;-56
2023/08/18 09:37:38;;;;;;;32.30;7.40;;;23.80;89.90;;;;;;5034314;28;20855;-55
2023/08/18 09:40:04;;;;;;;8.13;3.50;;;24.00;90.90;;;;;;5043520;28;20934;-56
2023/08/18 09:42:30;;;;;;;9.87;3.57;;;24.10;87.70;;;;;;5032394;28;20175;-57
2023/08/18 09:44:56;;;;;;;12.90;3.70;;;24.30;85.40;;;;;;5040162;28;20423;-56
2023/08/18 09:47:28;;;;;;;7.03;3.20;;;24.50;72.00;;;;;;5033945;28;20210;-57
2023/08/18 09:49:55;;;;;;;6.13;3.13;;;24.60;67.00;;;;;;5045962;28;20189;-57
2023/08/18 09:52:25;;;;;;;17.07;4.20;;;24.70;67.10;;;;;;5040664;28;20950;-56
2023/08/18 09:55:06;;;;;;;12.80;3.43;;;24.90;68.60;;;;;;5045317;28;20465;-56
2023/08/18 09:57:37;;;;;;;6.30;3.00;;;25.10;69.30;;;;;;5040154;28;20451;-56
2023/08/18 10:00:04;;;;;;;8.60;2.83;;;25.20;71.30;;;;;;5049249;28;20930;-55
2023/08/18 10:02:33;;;;;;;12.50;3.97;;;25.40;71.70;;;;;;5051737;28;20619;-56
2023/08/18 10:05:00;;;;;;;13.60;3.30;;;25.50;70.70;;;;;;5043982;28;20475;-56
2023/08/18 10:07:26;;;;;;;4.87;2.83;;;25.70;68.70;;;;;;5045964;28;20487;-56
2023/08/18 10:09:54;;;;;;;4.10;3.30;;;25.80;64.70;;;;;;5042521;28;20487;-56
2023/08/18 10:12:20;;;;;;;6.67;3.33;;;25.90;64.20;;;;;;5050088;28;20481;-55
2023/08/18 10:14:48;;;;;;;7.73;3.40;;;26.00;64.80;;;;;;5045771;28;20877;-56
2023/08/18 10:17:15;;;;;;;7.40;3.37;;;26.10;62.00;;;;;;5043250;28;20445;-56
2023/08/18 10:19:58;;;;;;;10.70;3.90;;;26.20;61.80;;;;;;5049036;28;20448;-56
2023/08/18 10:22:26;;;;;;;16.17;3.50;;;26.30;62.80;;;;;;5048597;28;20448;-57
2023/08/18 10:24:52;;;;;;;9.03;3.47;;;26.40;62.90;;;;;;5046416;28;20197;-56
2023/08/18 10:27:27;;;;;;;8.60;3.30;;;26.50;62.90;;;;;;5035229;28;21153;-56
2023/08/18 10:29:59;;;;;;;3.30;2.73;;;26.60;62.20;;;;;;5039135;28;21149;-56
2023/08/18 10:32:25;;;;;;;7.97;3.27;;;26.80;61.10;;;;;;5035004;28;20207;-56
2023/08/18 10:34:51;;;;;;;8.17;3.50;;;26.80;59.80;;;;;;5037040;28;20237;-56
2023/08/18 10:37:20;;;;;;;12.47;3.53;;;26.90;59.60;;;;;;5042143;28;20203;-55
2023/08/18 10:39:48;;;;;;;11.90;4.00;;;27.00;60.70;;;;;;5035870;28;20182;-56
2023/08/18 10:42:15;;;;;;;6.60;3.70;;;27.10;62.00;;;;;;5041893;28;20175;-56
2023/08/18 10:45:21;;;;;;;8.77;3.10;;;27.20;61.60;;;;;;5042267;28;20190;-57
2023/08/18 10:47:46;;;;;;;21.07;4.10;;;27.30;59.30;;;;;;5040836;28;20325;-57
2023/08/18 10:50:14;;;;;;;15.63;3.77;;;27.40;58.20;;;;;;5041800;28;20262;-56
2023/08/18 10:52:40;;;;;;;8.20;3.83;;;27.50;58.40;;;;;;5037257;28;20194;-56
2023/08/18 10:55:06;;;;;;;10.27;3.60;;;27.60;58.00;;;;;;5037348;28;20675;-56
2023/08/18 10:57:33;;;;;;;7.50;2.90;;;27.60;58.30;;;;;;5041469;28;20337;-56
2023/08/18 11:00:00;;;;;;;7.73;3.40;;;27.70;57.70;;;;;;5040867;28;20180;-57
2023/08/18 11:02:26;;;;;;;8.30;3.77;;;27.80;56.90;;;;;;5039944;28;20235;-56
2023/08/18 11:04:51;;;;;;;12.80;3.30;;;27.90;56.80;;;;;;5041801;28;20727;-57
2023/08/18 11:07:20;;;;;;;6.17;3.17;;;28.00;57.00;;;;;;5039169;28;20218;-57
2023/08/18 11:09:46;;;;;;;6.33;3.87;;;28.10;56.80;;;;;;5039273;28;20179;-57
2023/08/18 11:12:13;;;;;;;8.65;3.28;;;28.10;56.60;;;;;;5041239;28;20202;-56
2023/08/18 11:14:39;;;;;;;6.05;2.92;;;28.20;56.60;;;;;;5037787;28;20175;-57
2023/08/18 11:17:05;;;;;;;9.63;3.03;;;28.30;56.00;;;;;;5041437;28;20203;-57
2023/08/18 11:19:30;;;;;;;9.60;3.47;;;28.30;53.50;;;;;;5042646;28;20221;-57
2023/08/18 11:21:57;;;;;;;5.72;3.13;;;28.40;53.30;;;;;;5042769;28;20205;-57
2023/08/18 11:24:24;;;;;;;7.03;3.17;;;28.50;54.40;;;;;;5047828;28;20170;-57
2023/08/18 11:26:50;;;;;;;9.00;3.45;;;28.60;53.90;;;;;;5038084;28;20284;-58
2023/08/18 11:29:15;;;;;;;8.32;3.47;;;28.70;51.10;;;;;;5036603;28;20584;-57
2023/08/18 11:31:45;;;;;;;6.70;2.92;;;28.80;49.70;;;;;;5040582;28;20174;-56
2023/08/18 11:34:11;;;;;;;5.18;2.70;;;28.90;50.40;;;;;;5040720;28;20233;-57
2023/08/18 11:36:38;;;;;;;4.78;3.03;;;28.90;48.50;;;;;;5042016;28;20229;-57
2023/08/18 11:39:08;;;;;;;10.35;3.47;;;28.90;50.20;;;;;;5035693;28;20222;-58
2023/08/18 11:41:43;;;;;;;8.38;3.15;;;29.10;51.80;;;;;;5036623;28;20179;-58
2023/08/18 11:44:10;;;;;;;10.18;3.10;;;29.20;49.60;;;;;;5040721;28;20706;-58
2023/08/18 11:46:39;;;;;;;6.72;3.10;;;29.30;48.40;;;;;;5044842;28;20175;-57
2023/08/18 11:49:12;;;;;;;5.85;3.10;;;29.40;49.00;;;;;;5044124;28;20686;-57
2023/08/18 11:51:53;;;;;;;8.70;3.20;;;29.60;50.70;;;;;;5037517;28;20538;-58
2023/08/18 11:54:18;;;;;;;21.60;3.28;;;29.70;49.50;;;;;;5044778;28;20267;-58
2023/08/18 11:56:44;;;;;;;9.75;3.63;;;29.90;48.70;;;;;;5045816;28;20173;-58
2023/08/18 11:59:18;;;;;;;9.30;3.05;;;30.10;47.80;;;;;;5043600;28;20518;-58
2023/08/18 12:01:44;;;;;;;7.03;3.20;;;30.10;46.00;;;;;;5031992;28;20660;-58
2023/08/18 12:04:12;;;;;;;6.00;3.10;;;30.20;45.00;;;;;;5042557;28;20183;-56
2023/08/18 12:06:39;;;;;;;5.50;3.03;;;30.30;44.70;;;;;;5033286;28;20222;-55
2023/08/18 12:09:12;;;;;;;8.82;3.00;;;30.40;44.10;;;;;;5030954;28;20178;-56
2023/08/18 12:11:38;;;;;;;9.13;3.10;;;30.50;43.70;;;;;;5039403;28;20693;-56
2023/08/18 12:14:04;;;;;;;8.77;3.42;;;30.60;45.90;;;;;;5039399;28;20753;-56
2023/08/18 12:16:29;;;;;;;7.22;3.42;;;30.70;47.70;;;;;;5038532;28;20174;-57
2023/08/18 12:18:55;;;;;;;5.78;3.53;;;30.80;48.10;;;;;;5041975;28;20203;-58
2023/08/18 12:21:20;;;;;;;8.95;3.05;;;31.00;48.30;;;;;;5043725;28;20205;-56
2023/08/18 12:23:46;;;;;;;7.78;3.42;;;31.10;49.20;;;;;;5041279;28;20182;-57
2023/08/18 12:26:12;;;;;;;12.60;3.50;;;31.20;46.80;;;;;;5048831;28;20194;-58
2023/08/18 12:28:37;;;;;;;6.75;2.80;;;31.30;47.50;;;;;;5045891;28;20205;-57
2023/08/18 12:31:03;;;;;;;5.82;3.47;;;31.50;47.10;;;;;;5040925;28;20754;-57
2023/08/18 12:33:29;;;;;;;8.25;3.25;;;31.60;46.30;;;;;;5045082;28;20195;-58
2023/08/18 12:35:55;;;;;;;9.57;3.15;;;31.70;45.80;;;;;;5042927;28;20194;-58
2023/08/18 12:38:20;;;;;;;6.72;2.70;;;31.80;45.80;;;;;;5041756;28;20233;-59
2023/08/18 12:40:46;;;;;;;6.35;3.28;;;32.00;45.50;;;;;;5040906;28;20183;-58